Friday, May 25, 2018, 8:13 PM EDT
Back to Local

KORH, Worcester Regional Airport

Location: Worcester, MA, United States Lat: 42.267
Local Time: 8:13 PM EDT ( 0:13 GMT) Lon: -71.867
Time Zone: US/Eastern Elev: 1010 ft

Show me the last for .
Show Coded

Time T Td Feel RH Dir Speed Gust Alt SLP Vis Weather Sky Remarks
2018-05-25 19:54 77 48 - 36 250° 12 - 29.80 29.79 10 CLR 6-hr Precip Total (8pm): 0.00"
6-hr Min Temp (8pm): 77.0°F
6-hr Max Temp (8pm): 82.9°F
2018-05-25 18:54 80 50 - 35 240° 15 - 29.79 29.78 10 CLR None
2018-05-25 17:54 81 50 - 34 240° 18 24 29.80 29.78 10 CLR 1-hr Precip Total: Trace
2018-05-25 16:54 82 50 - 32 220° 18 25 29.81 29.80 10 CLR 1-hr Precip Total: Trace
6-hr Precip Total (5pm): 0.00"
2018-05-25 15:54 82 49 - 31 240° 22 30 29.83 29.82 10 CLR Peak wind: 29 mph (26 kts) from 240° at 54 min
1-hr Precip Total: Trace
2018-05-25 14:54 81 47 - 30 240° 22 29 29.85 29.84 10 CLR Peak wind: 33 mph (29 kts) from 250° at 59 min
2018-05-25 13:54 81 48 - 31 260° 16 26 29.87 29.86 10 CLR Peak wind: 33 mph (29 kts) from 250° at 39 min
6-hr Min Temp (2pm): 62.1°F
6-hr Max Temp (2pm): 81.0°F
2018-05-25 12:54 79 49 - 34 270° 18 29 29.89 29.88 10 CLR Peak wind: 32 mph (28 kts) from 280° at 22 min
2018-05-25 11:54 78 50 - 37 250° 18 24 29.92 29.91 10 CLR None
2018-05-25 10:54 76 50 77 40 250° 14 - 29.95 29.94 10 CLR None
2018-05-25 09:54 72 50 76 45 250° 15 22 29.97 29.96 10 CLR None
2018-05-25 08:54 67 49 - 52 250° 13 - 29.99 29.98 10 CLR None
2018-05-25 07:54 62 48 - 60 260° 9 - 29.99 29.98 10 CLR 6-hr Min Temp (8am): 54.0°F
6-hr Max Temp (8am): 62.1°F
2018-05-25 06:54 57 46 - 66 260° 13 - 30.00 29.99 10 CLR None
2018-05-25 05:54 56 45 - 66 260° 13 - 30.00 29.99 10 CLR None
2018-05-25 04:54 55 45 - 68 260° 13 - 29.99 29.99 10 CLR None
2018-05-25 03:54 54 45 - 71 260° 14 - 30.00 30.00 10 CLR None
2018-05-25 02:54 54 45 - 71 260° 14 - 30.02 30.01 10 CLR None
2018-05-25 01:54 55 46 - 71 250° 14 - 30.04 30.03 10 CLR 6-hr Min Temp (2am): 54.0°F
6-hr Max Temp (2am): 66.0°F
2018-05-24 23:54 54 48 - 80 250° 13 - 30.06 30.06 10 CLR None
2018-05-24 22:54 54 48 - 80 230° 10 - 30.07 30.07 10 CLR None
2018-05-24 21:54 56 49 - 77 210° 12 - 30.08 30.09 10 CLR None
2018-05-24 20:54 60 50 - 69 200° 13 - 30.08 30.08 10 CLR None

Support USWX by starting your Amazon purchase here.